createdAt,value
2019-04-06T00:01:07.810Z,93.60
2019-04-06T00:03:34.755Z,93.10
2019-04-06T00:06:01.801Z,93.20
2019-04-06T00:08:28.847Z,93.50
2019-04-06T00:10:55.794Z,93.10
2019-04-06T00:13:23.760Z,93.00
2019-04-06T00:15:50.813Z,93.00
2019-04-06T00:18:17.753Z,93.10
2019-04-06T00:20:44.798Z,93.00
2019-04-06T00:23:11.743Z,92.90
2019-04-06T00:25:44.209Z,92.90
2019-04-06T00:28:07.988Z,93.60
2019-04-06T00:30:36.773Z,93.60
2019-04-06T00:33:05.505Z,93.60
2019-04-06T00:35:32.406Z,94.00
2019-04-06T00:37:59.756Z,94.10
2019-04-06T00:40:26.804Z,94.10
2019-04-06T00:42:53.747Z,94.20
2019-04-06T00:45:20.795Z,94.50
2019-04-06T00:47:47.739Z,95.00
2019-04-06T00:50:16.527Z,95.20
2019-04-06T00:52:43.573Z,94.90
2019-04-06T00:55:10.539Z,95.10
2019-04-06T00:57:37.461Z,95.20
2019-04-06T01:00:06.151Z,95.40
2019-04-06T01:02:33.193Z,95.00
2019-04-06T01:05:00.239Z,94.50
2019-04-06T01:07:27.183Z,94.40
2019-04-06T01:09:54.128Z,94.70
2019-04-06T01:12:21.175Z,94.60
2019-04-06T01:14:48.118Z,94.40
2019-04-06T01:17:15.166Z,94.30
2019-04-06T01:19:42.315Z,94.30
2019-04-06T01:22:09.259Z,94.60
2019-04-06T01:24:36.305Z,95.00
2019-04-06T01:27:03.352Z,94.70
2019-04-06T01:29:30.398Z,94.70
2019-04-06T01:31:57.549Z,94.40
2019-04-06T01:34:24.595Z,95.00
2019-04-06T01:36:51.538Z,94.80
2019-04-06T01:39:18.595Z,94.80
2019-04-06T01:41:45.631Z,95.10
2019-04-06T01:44:12.678Z,95.10
2019-04-06T01:46:39.731Z,95.60
2019-04-06T01:49:06.773Z,95.60
2019-04-06T01:51:33.716Z,95.00
2019-04-06T01:54:00.873Z,94.20
2019-04-06T01:56:27.817Z,93.80
2019-04-06T01:58:54.753Z,94.80
2019-04-06T02:01:23.543Z,95.20
2019-04-06T02:03:50.587Z,95.70
2019-04-06T02:06:17.730Z,95.90
2019-04-06T02:08:44.731Z,96.00
2019-04-06T02:11:11.768Z,95.90
2019-04-06T02:13:38.672Z,95.90
2019-04-06T02:16:05.616Z,96.10
2019-04-06T02:18:32.664Z,96.20
2019-04-06T02:20:59.916Z,96.00
2019-04-06T02:23:26.858Z,96.50
2019-04-06T02:25:53.802Z,96.20
2019-04-06T02:28:20.850Z,96.10
2019-04-06T02:31:01.516Z,95.80
2019-04-06T02:33:30.303Z,96.20
2019-04-06T02:36:15.649Z,96.50
2019-04-06T02:38:44.301Z,96.90
2019-04-06T02:41:12.894Z,96.40
2019-04-06T02:43:40.587Z,95.90
2019-04-06T02:46:07.345Z,95.30
2019-04-06T02:48:34.297Z,94.70
2019-04-06T02:51:01.239Z,95.70
2019-04-06T02:53:28.181Z,96.60
2019-04-06T02:55:55.258Z,97.10
2019-04-06T02:58:23.224Z,97.50
2019-04-06T03:00:51.107Z,97.50
2019-04-06T03:03:18.003Z,97.90
2019-04-06T03:05:44.817Z,98.00
2019-04-06T03:08:11.678Z,98.10
2019-04-06T03:10:38.471Z,98.20
2019-04-06T03:13:05.313Z,98.30
2019-04-06T03:15:32.221Z,98.10
2019-04-06T03:17:59.273Z,97.90
2019-04-06T03:20:26.205Z,97.50
2019-04-06T03:22:53.208Z,97.10
2019-04-06T03:25:20.118Z,97.00
2019-04-06T03:27:47.144Z,96.80
2019-04-06T03:30:14.191Z,96.80
2019-04-06T03:32:41.353Z,96.80
2019-04-06T03:35:08.559Z,97.10
2019-04-06T03:37:35.635Z,96.20
2019-04-06T03:40:03.442Z,96.80
2019-04-06T03:42:30.449Z,96.80
2019-04-06T03:44:57.495Z,97.30
2019-04-06T03:47:24.435Z,97.30
2019-04-06T03:49:51.522Z,97.30
2019-04-06T03:52:18.430Z,96.90
2019-04-06T03:54:45.475Z,97.10
2019-04-06T03:57:16.245Z,97.00
2019-04-06T03:59:41.102Z,97.20
2019-04-06T04:02:08.046Z,97.20
2019-04-06T04:04:35.187Z,97.50
2019-04-06T04:07:02.353Z,97.70
2019-04-06T04:09:29.559Z,97.80
2019-04-06T04:11:56.644Z,97.70
2019-04-06T04:14:23.873Z,97.50
2019-04-06T04:16:50.839Z,97.40
2019-04-06T04:19:18.045Z,97.40
2019-04-06T04:21:45.035Z,97.20
2019-04-06T04:24:11.989Z,97.00
2019-04-06T04:26:38.923Z,96.60
2019-04-06T04:29:05.970Z,96.20
2019-04-06T04:31:32.817Z,96.40
2019-04-06T04:33:59.773Z,96.30
2019-04-06T04:36:26.804Z,96.40
2019-04-06T04:38:53.875Z,96.50
2019-04-06T04:41:20.794Z,96.20
2019-04-06T04:43:47.841Z,96.00
2019-04-06T04:46:14.786Z,96.00
2019-04-06T04:48:41.830Z,96.50
2019-04-06T04:51:08.976Z,96.50
2019-04-06T04:53:35.931Z,96.60
2019-04-06T04:56:02.972Z,97.00
2019-04-06T04:58:29.928Z,97.90
2019-04-06T05:00:56.860Z,97.60
2019-04-06T05:03:23.809Z,98.00
2019-04-06T05:05:50.850Z,97.70
2019-04-06T05:08:17.693Z,97.80
2019-04-06T05:10:44.640Z,97.80
2019-04-06T05:13:11.579Z,97.60
2019-04-06T05:15:54.709Z,97.20
2019-04-06T05:18:21.648Z,96.90
2019-04-06T05:20:48.593Z,97.00
2019-04-06T05:23:15.638Z,97.10
2019-04-06T05:25:42.582Z,97.00
2019-04-06T05:28:09.834Z,96.90
2019-04-06T05:30:36.821Z,97.30
2019-04-06T05:33:03.825Z,97.00
2019-04-06T05:35:30.872Z,97.10
2019-04-06T05:37:57.889Z,97.10
2019-04-06T05:40:24.965Z,97.20
2019-04-06T05:42:52.222Z,96.80
2019-04-06T05:45:19.263Z,96.90
2019-04-06T05:47:46.310Z,96.90
2019-04-06T05:50:13.356Z,97.00
2019-04-06T05:52:40.315Z,96.80
2019-04-06T05:55:07.313Z,96.40
2019-04-06T05:57:34.289Z,96.10
2019-04-06T06:00:01.340Z,96.20
2019-04-06T06:02:28.385Z,95.40
2019-04-06T06:04:55.453Z,95.50
2019-04-06T06:07:22.461Z,95.60
2019-04-06T06:09:49.465Z,95.70
2019-04-06T06:12:16.292Z,95.60
2019-04-06T06:14:43.144Z,95.50
2019-04-06T06:17:09.933Z,95.30
2019-04-06T06:19:37.395Z,95.60
2019-04-06T06:22:04.217Z,95.90
2019-04-06T06:24:31.048Z,96.00
2019-04-06T06:26:57.890Z,95.70
2019-04-06T06:29:24.719Z,95.70
2019-04-06T06:31:51.661Z,96.40
2019-04-06T06:34:18.429Z,96.70
2019-04-06T06:36:45.260Z,96.30
2019-04-06T06:39:12.157Z,96.20
2019-04-06T06:41:38.968Z,96.10
2019-04-06T06:44:05.822Z,96.40
2019-04-06T06:46:32.699Z,96.20
2019-04-06T06:48:59.525Z,96.40
2019-04-06T06:51:26.345Z,95.80
2019-04-06T06:53:53.283Z,95.80
2019-04-06T06:56:20.156Z,97.10
2019-04-06T06:58:46.997Z,96.90
2019-04-06T07:01:14.010Z,97.20
2019-04-06T07:03:40.848Z,96.80
2019-04-06T07:06:07.613Z,97.20
2019-04-06T07:08:34.394Z,97.20
2019-04-06T07:11:01.223Z,97.20
2019-04-06T07:13:28.008Z,96.80
2019-04-06T07:15:54.852Z,97.20
2019-04-06T07:18:21.651Z,97.60
2019-04-06T07:20:48.500Z,97.20
2019-04-06T07:23:15.447Z,96.70
2019-04-06T07:25:42.289Z,96.30
2019-04-06T07:28:09.068Z,96.40
2019-04-06T07:30:35.924Z,95.90
2019-04-06T07:33:02.776Z,95.40
2019-04-06T07:35:29.620Z,95.20
2019-04-06T07:37:56.500Z,95.80
2019-04-06T07:40:23.292Z,95.00
2019-04-06T07:42:50.138Z,94.50
2019-04-06T07:45:16.916Z,94.40
2019-04-06T07:47:43.807Z,93.90
2019-04-06T07:50:11.023Z,92.70
2019-04-06T07:52:37.927Z,93.30
2019-04-06T07:55:06.371Z,91.20
2019-04-06T07:57:33.312Z,89.60
2019-04-06T08:00:00.152Z,88.20
2019-04-06T08:02:28.780Z,88.40
2019-04-06T08:04:55.778Z,86.60
2019-04-06T08:07:22.615Z,85.10
2019-04-06T08:09:49.449Z,84.70
2019-04-06T08:12:16.237Z,85.90
2019-04-06T08:14:43.073Z,85.30
2019-04-06T08:17:10.114Z,85.10
2019-04-06T08:19:37.092Z,84.50
2019-04-06T08:22:04.731Z,83.00
2019-04-06T08:24:31.670Z,83.40
2019-04-06T08:26:58.617Z,82.50
2019-04-06T08:29:26.276Z,82.60
2019-04-06T08:31:53.252Z,82.60
2019-04-06T08:34:20.160Z,83.40
2019-04-06T08:36:47.085Z,81.80
2019-04-06T08:39:13.981Z,81.20
2019-04-06T08:43:12.292Z,81.20
2019-04-06T08:45:39.132Z,80.90
2019-04-06T08:48:06.584Z,80.00
2019-04-06T08:50:35.943Z,79.20
2019-04-06T08:53:04.347Z,78.80
2019-04-06T08:55:36.315Z,79.30
2019-04-06T08:58:12.040Z,80.10
2019-04-06T09:00:44.106Z,79.60
2019-04-06T09:03:11.072Z,79.50
2019-04-06T09:05:38.082Z,82.00
2019-04-06T09:08:12.256Z,81.00
2019-04-06T09:10:46.457Z,80.40
2019-04-06T09:13:13.784Z,81.80
2019-04-06T09:15:43.926Z,81.20
2019-04-06T09:18:13.258Z,82.20
2019-04-06T09:20:46.962Z,82.80
2019-04-06T09:23:20.221Z,81.50
2019-04-06T09:26:06.310Z,79.50
2019-04-06T09:28:39.245Z,81.00
2019-04-06T09:31:10.814Z,79.70
2019-04-06T09:33:39.822Z,79.20
2019-04-06T09:36:08.622Z,80.90
2019-04-06T09:38:35.589Z,80.20
2019-04-06T09:41:08.299Z,79.60
2019-04-06T09:43:41.022Z,79.00
2019-04-06T09:46:18.571Z,78.70
2019-04-06T09:48:56.057Z,79.80
2019-04-06T09:51:31.500Z,79.10
2019-04-06T09:54:11.117Z,77.40
2019-04-06T09:56:44.233Z,78.30
2019-04-06T09:59:17.507Z,77.70
2019-04-06T10:02:04.117Z,77.20
2019-04-06T10:04:48.260Z,77.30
2019-04-06T10:07:30.176Z,78.00
2019-04-06T10:10:09.571Z,77.70
2019-04-06T10:12:53.502Z,77.50
2019-04-06T10:15:46.435Z,77.70
2019-04-06T10:18:33.389Z,79.60
2019-04-06T10:21:04.147Z,78.50
2019-04-06T10:23:40.483Z,78.20
2019-04-06T10:26:08.526Z,78.40
2019-04-06T10:28:37.592Z,78.20
2019-04-06T10:31:09.528Z,78.00
2019-04-06T10:33:43.112Z,77.50
2019-04-06T10:36:20.160Z,77.90
2019-04-06T10:38:50.430Z,77.00
2019-04-06T10:41:42.015Z,78.00
2019-04-06T10:44:28.095Z,77.70
2019-04-06T10:47:03.295Z,75.80
2019-04-06T10:49:50.674Z,75.60
2019-04-06T10:52:40.399Z,76.90
2019-04-06T10:55:32.949Z,76.50
2019-04-06T10:58:07.260Z,78.00
2019-04-06T11:00:46.460Z,76.70
2019-04-06T11:03:19.401Z,76.00
2019-04-06T11:06:07.843Z,75.50
2019-04-06T11:08:55.144Z,75.70
2019-04-06T11:11:30.388Z,77.10
2019-04-06T11:14:19.410Z,77.10
2019-04-06T11:17:01.744Z,76.80
2019-04-06T11:19:38.313Z,77.00
2019-04-06T11:22:11.797Z,75.90
2019-04-06T11:24:55.237Z,76.20
2019-04-06T11:27:47.241Z,76.40
2019-04-06T11:30:27.421Z,76.50
2019-04-06T11:32:56.097Z,76.60
2019-04-06T11:35:43.922Z,74.60
2019-04-06T11:38:16.604Z,74.40
2019-04-06T11:40:50.439Z,72.80
2019-04-06T11:43:23.800Z,73.70
2019-04-06T11:45:58.173Z,74.20
2019-04-06T11:48:27.074Z,74.60
2019-04-06T11:51:17.098Z,74.80
2019-04-06T11:54:07.311Z,74.00
2019-04-06T11:56:38.277Z,73.30
2019-04-06T11:59:12.706Z,73.10
2019-04-06T12:02:03.119Z,73.30
2019-04-06T12:04:41.543Z,73.10
2019-04-06T12:07:29.720Z,73.00
2019-04-06T12:10:04.278Z,73.30
2019-04-06T12:12:48.309Z,72.40
2019-04-06T12:15:26.049Z,72.20
2019-04-06T12:18:01.367Z,71.80
2019-04-06T12:20:35.996Z,71.60
2019-04-06T12:23:11.506Z,72.00
2019-04-06T12:26:00.541Z,72.30
2019-04-06T12:28:33.765Z,71.90
2019-04-06T12:31:03.581Z,72.00
2019-04-06T12:33:52.113Z,73.10
2019-04-06T12:36:32.725Z,74.70
2019-04-06T12:39:13.016Z,74.90
2019-04-06T12:41:58.482Z,74.90
2019-04-06T12:44:30.111Z,72.00
2019-04-06T12:47:04.053Z,72.30
2019-04-06T12:49:35.619Z,72.30
2019-04-06T12:52:25.734Z,71.50
2019-04-06T12:55:14.608Z,71.50
2019-04-06T12:57:52.399Z,71.50
2019-04-06T13:00:50.725Z,72.40
2019-04-06T13:03:15.155Z,73.60
2019-04-06T13:06:00.855Z,72.70
2019-04-06T13:08:37.599Z,71.80
2019-04-06T13:11:15.358Z,72.20
2019-04-06T13:14:04.325Z,71.50
2019-04-06T13:16:36.498Z,70.80
2019-04-06T13:19:11.014Z,71.80
2019-04-06T13:21:58.906Z,72.10
2019-04-06T13:24:31.330Z,71.00
2019-04-06T13:27:02.883Z,70.90
2019-04-06T13:29:39.084Z,71.20
2019-04-06T13:32:27.416Z,71.10
2019-04-06T13:34:59.149Z,70.60
2019-04-06T13:37:39.436Z,70.10
2019-04-06T13:40:25.156Z,70.00
2019-04-06T13:42:56.771Z,72.20
2019-04-06T13:45:28.672Z,72.00
2019-04-06T13:48:14.644Z,71.20
2019-04-06T13:50:49.838Z,70.50
2019-04-06T13:53:29.214Z,69.90
2019-04-06T13:56:06.300Z,69.60
2019-04-06T13:58:43.804Z,69.90
2019-04-06T14:01:18.892Z,69.80
2019-04-06T14:04:05.558Z,69.90
2019-04-06T14:06:44.301Z,69.60
2019-04-06T14:09:29.568Z,69.00
2019-04-06T14:12:07.159Z,67.70
2019-04-06T14:14:48.375Z,68.90
2019-04-06T14:17:14.493Z,68.20
2019-04-06T14:19:49.326Z,68.00
2019-04-06T14:22:32.979Z,67.50
2019-04-06T14:25:07.977Z,68.70
2019-04-06T14:27:46.610Z,69.10
2019-04-06T14:30:21.801Z,67.80
2019-04-06T14:33:14.082Z,69.10
2019-04-06T14:35:48.660Z,68.60
2019-04-06T14:38:27.972Z,67.60
2019-04-06T14:41:20.307Z,68.10
2019-04-06T14:44:04.314Z,68.90
2019-04-06T14:46:33.051Z,68.20
2019-04-06T14:49:12.051Z,68.70
2019-04-06T14:51:34.984Z,68.00
2019-04-06T14:54:06.844Z,69.10
2019-04-06T14:56:35.636Z,68.90
2019-04-06T14:59:16.606Z,69.40
2019-04-06T15:01:59.478Z,70.00
2019-04-06T15:04:34.399Z,70.30
2019-04-06T15:07:18.348Z,70.20
2019-04-06T15:09:50.057Z,70.00
2019-04-06T15:12:27.810Z,69.10
2019-04-06T15:15:13.769Z,69.70
2019-04-06T15:17:48.826Z,69.50
2019-04-06T15:20:17.474Z,68.70
2019-04-06T15:22:55.629Z,69.40
2019-04-06T15:25:41.289Z,69.40
2019-04-06T15:28:18.979Z,69.60
2019-04-06T15:30:47.658Z,70.20
2019-04-06T15:33:16.565Z,70.20
2019-04-06T15:35:54.495Z,71.00
2019-04-06T15:38:38.330Z,71.30
2019-04-06T15:41:25.584Z,70.90
2019-04-06T15:44:11.587Z,71.10
2019-04-06T15:46:55.420Z,71.90
2019-04-06T15:49:32.944Z,71.00
2019-04-06T15:52:19.621Z,71.80
2019-04-06T15:54:51.209Z,71.00
2019-04-06T15:57:34.704Z,71.70
2019-04-06T16:00:03.544Z,71.20
2019-04-06T16:02:47.477Z,71.80
2019-04-06T16:05:19.189Z,71.60
2019-04-06T16:07:50.784Z,71.60
2019-04-06T16:10:19.371Z,71.50
2019-04-06T16:13:04.372Z,71.90
2019-04-06T16:15:39.242Z,71.70
2019-04-06T16:18:08.174Z,71.80
2019-04-06T16:20:51.845Z,71.80
2019-04-06T16:23:20.485Z,71.80
2019-04-06T16:25:58.395Z,72.60
2019-04-06T16:28:43.676Z,72.60
2019-04-06T16:31:15.097Z,72.50
2019-04-06T16:33:43.718Z,72.10
2019-04-06T16:36:12.362Z,71.90
2019-04-06T16:38:41.006Z,72.50
2019-04-06T16:41:09.672Z,72.80
2019-04-06T16:43:50.759Z,72.70
2019-04-06T16:46:19.400Z,72.70
2019-04-06T16:49:03.495Z,73.00
2019-04-06T16:51:32.092Z,73.50
2019-04-06T16:54:03.755Z,73.90
2019-04-06T16:56:41.330Z,74.10
2019-04-06T16:59:15.800Z,74.50
2019-04-06T17:01:53.462Z,74.30
2019-04-06T17:04:24.897Z,74.50
2019-04-06T17:07:08.622Z,74.50
2019-04-06T17:09:37.687Z,74.90
2019-04-06T17:12:12.519Z,75.10
2019-04-06T17:14:57.769Z,75.30
2019-04-06T17:17:29.126Z,75.50
2019-04-06T17:20:00.818Z,75.70
2019-04-06T17:22:35.832Z,76.10
2019-04-06T17:25:07.552Z,76.50
2019-04-06T17:27:42.292Z,76.70
2019-04-06T17:30:14.180Z,77.00
2019-04-06T17:32:59.613Z,77.20
2019-04-06T17:35:34.018Z,77.50
2019-04-06T17:38:18.071Z,77.50
2019-04-06T17:40:49.539Z,77.70
2019-04-06T17:43:35.216Z,78.30
2019-04-06T17:46:07.112Z,78.40
2019-04-06T17:48:41.800Z,78.70
2019-04-06T17:51:16.944Z,78.90
2019-04-06T17:54:04.003Z,79.20
2019-04-06T17:56:33.251Z,79.10
2019-04-06T17:59:02.157Z,79.60
2019-04-06T18:01:40.001Z,79.70
2019-04-06T18:04:11.619Z,80.10
2019-04-06T18:06:57.174Z,80.20
2019-04-06T18:09:25.962Z,80.50
2019-04-06T18:12:00.818Z,80.60
2019-04-06T18:14:28.011Z,80.70
2019-04-06T18:16:55.470Z,80.70
2019-04-06T18:19:22.696Z,81.10
2019-04-06T18:21:49.694Z,80.90
2019-04-06T18:24:16.906Z,80.90
2019-04-06T18:26:43.824Z,81.20
2019-04-06T18:29:11.141Z,81.30
2019-04-06T18:31:56.620Z,81.50
2019-04-06T18:34:23.893Z,81.30
2019-04-06T18:36:52.658Z,81.40
2019-04-06T18:39:20.320Z,81.50
2019-04-06T18:41:47.265Z,81.60
2019-04-06T18:44:14.214Z,81.60
2019-04-06T18:46:41.921Z,81.80
2019-04-06T18:49:08.955Z,81.50
2019-04-06T18:51:36.599Z,82.00
2019-04-06T18:54:04.065Z,82.00
2019-04-06T18:56:31.081Z,82.10
2019-04-06T18:58:58.369Z,82.10
2019-04-06T19:01:25.777Z,82.20
2019-04-06T19:03:52.916Z,82.30
2019-04-06T19:06:19.881Z,82.30
2019-04-06T19:08:46.846Z,82.30
2019-04-06T19:11:14.179Z,82.30
2019-04-06T19:13:41.138Z,82.40
2019-04-06T19:16:08.067Z,82.30
2019-04-06T19:18:35.133Z,82.40
2019-04-06T19:21:02.059Z,82.30
2019-04-06T19:23:29.740Z,82.90
2019-04-06T19:25:56.971Z,82.60
2019-04-06T19:28:24.834Z,82.30
2019-04-06T19:30:52.088Z,82.50
2019-04-06T19:33:25.001Z,82.60
2019-04-06T19:35:48.346Z,82.70
2019-04-06T19:38:15.480Z,82.70
2019-04-06T19:40:42.767Z,82.90
2019-04-06T19:43:09.918Z,82.90
2019-04-06T19:45:37.197Z,83.00
2019-04-06T19:48:04.777Z,82.90
2019-04-06T19:50:31.772Z,82.80
2019-04-06T19:52:58.886Z,82.70
2019-04-06T19:55:25.933Z,82.50
2019-04-06T19:57:52.983Z,82.50
2019-04-06T20:00:20.435Z,82.80
2019-04-06T20:02:47.381Z,82.60
2019-04-06T20:05:14.263Z,82.60
2019-04-06T20:07:41.166Z,82.70
2019-04-06T20:10:08.827Z,82.50
2019-04-06T20:12:36.161Z,82.70
2019-04-06T20:15:05.070Z,82.70
2019-04-06T20:17:32.118Z,82.70
2019-04-06T20:20:00.124Z,82.50
2019-04-06T20:22:27.220Z,82.70
2019-04-06T20:24:54.284Z,82.80
2019-04-06T20:27:21.228Z,82.80
2019-04-06T20:29:48.650Z,83.00
2019-04-06T20:32:15.982Z,83.00
2019-04-06T20:34:43.528Z,82.80
2019-04-06T20:37:10.436Z,83.20
2019-04-06T20:39:37.489Z,83.00
2019-04-06T20:42:05.134Z,83.20
2019-04-06T20:44:32.489Z,83.20
2019-04-06T20:47:00.671Z,83.20
2019-04-06T20:49:27.716Z,83.30
2019-04-06T20:51:54.764Z,83.50
2019-04-06T20:54:22.015Z,83.50
2019-04-06T20:56:56.004Z,83.30
2019-04-06T20:59:18.306Z,83.40
2019-04-06T21:01:45.305Z,83.40
2019-04-06T21:04:12.249Z,83.40
2019-04-06T21:06:39.205Z,83.50
2019-04-06T21:09:08.732Z,83.60
2019-04-06T21:11:35.801Z,83.80
2019-04-06T21:14:03.277Z,83.50
2019-04-06T21:16:30.252Z,83.40
2019-04-06T21:18:57.422Z,83.70
2019-04-06T21:21:24.805Z,83.90
2019-04-06T21:23:51.797Z,83.50
2019-04-06T21:26:18.748Z,83.70
2019-04-06T21:28:45.788Z,83.50
2019-04-06T21:31:12.835Z,83.60
2019-04-06T21:33:39.779Z,83.50
2019-04-06T21:36:06.826Z,83.50
2019-04-06T21:38:34.339Z,83.40
2019-04-06T21:41:01.332Z,83.50
2019-04-06T21:43:28.931Z,83.50
2019-04-06T21:45:56.516Z,83.40
2019-04-06T21:48:23.697Z,83.20
2019-04-06T21:50:50.744Z,83.30
2019-04-06T21:53:18.579Z,83.20
2019-04-06T21:55:45.890Z,83.40
2019-04-06T21:58:13.048Z,83.50
2019-04-06T22:00:44.784Z,83.30
2019-04-06T22:03:12.159Z,83.30
2019-04-06T22:05:39.848Z,83.30
2019-04-06T22:08:07.052Z,83.40
2019-04-06T22:10:34.290Z,83.40
2019-04-06T22:13:01.445Z,83.60
2019-04-06T22:15:28.481Z,83.70
2019-04-06T22:17:55.700Z,83.80
2019-04-06T22:20:23.230Z,84.00
2019-04-06T22:22:50.262Z,84.10
2019-04-06T22:25:19.727Z,84.30
2019-04-06T22:27:47.534Z,84.10
2019-04-06T22:30:14.913Z,83.90
2019-04-06T22:32:41.951Z,84.10
2019-04-06T22:35:09.154Z,84.00
2019-04-06T22:37:36.099Z,84.30
2019-04-06T22:40:05.194Z,84.60
2019-04-06T22:42:32.139Z,84.70
2019-04-06T22:44:59.184Z,84.50
2019-04-06T22:47:26.315Z,84.50
2019-04-06T22:49:53.626Z,84.70
2019-04-06T22:52:20.632Z,85.10
2019-04-06T22:54:47.729Z,85.40
2019-04-06T22:57:16.937Z,85.00
2019-04-06T22:59:43.922Z,85.20
2019-04-06T23:02:10.998Z,85.00
2019-04-06T23:04:56.244Z,85.00
2019-04-06T23:07:24.925Z,85.30
2019-04-06T23:09:52.075Z,84.90
2019-04-06T23:12:19.025Z,85.00
2019-04-06T23:14:45.856Z,85.20
2019-04-06T23:17:12.688Z,85.30
2019-04-06T23:19:39.549Z,85.30
2019-04-06T23:22:06.594Z,85.20
2019-04-06T23:24:33.539Z,85.40
2019-04-06T23:27:00.485Z,85.40
2019-04-06T23:29:27.971Z,85.50
2019-04-06T23:31:54.855Z,85.60
2019-04-06T23:34:21.700Z,85.90
2019-04-06T23:36:48.489Z,86.10
2019-04-06T23:39:15.335Z,86.10
2019-04-06T23:41:43.707Z,86.10
2019-04-06T23:44:10.761Z,86.00
2019-04-06T23:46:37.540Z,85.80
2019-04-06T23:49:04.374Z,85.90
2019-04-06T23:51:31.437Z,85.70
2019-04-06T23:53:58.511Z,85.70
2019-04-06T23:56:25.417Z,85.40
2019-04-06T23:58:52.365Z,85.40
